80002 ZGGG-ZGHA
Flight info
| Callsign | 80002 |
|---|---|
| Flight time | 0h 48m |
| Altitude | 24600 |
| Route | MIKIP A461 MEXON |
| Aircraft | B752/M-SDE3FGHIM3RWXY/LB1 |
Departure
| Time | 2026-05-01 09:10 |
|---|---|
| Airport | Guangzhou Baiyun International Airport (ZGGG) |
Arrival
| Time | 2026-05-01 09:59 |
|---|---|
| Airport | Changsha Huanghua International Airport (ZGHA) |
| Time | Latitude | Longitude | Altitude | Speed | Heading |
|---|---|---|---|---|---|
| 2026-05-01 08:57 | 23.36623 | 113.31823 | 54 ft | 0 kts | 284° |
| 2026-05-01 09:00 | 23.36620 | 113.31833 | 54 ft | 2 kts | 283° |
| 2026-05-01 09:01 | 23.36617 | 113.31849 | 54 ft | 2 kts | 284° |
| 2026-05-01 09:01 | 23.36614 | 113.31861 | 54 ft | 2 kts | 284° |
| 2026-05-01 09:01 | 23.36613 | 113.31865 | 54 ft | 1 kts | 284° |
| 2026-05-01 09:01 | 23.36611 | 113.31876 | 54 ft | 2 kts | 265° |
| 2026-05-01 09:02 | 23.36616 | 113.31890 | 54 ft | 2 kts | 230° |
| 2026-05-01 09:02 | 23.36627 | 113.31899 | 54 ft | 0 kts | 198° |
| 2026-05-01 09:02 | 23.36633 | 113.31900 | 54 ft | 1 kts | 193° |
| 2026-05-01 09:02 | 23.36634 | 113.31901 | 54 ft | 0 kts | 193° |
| 2026-05-01 09:04 | 23.36632 | 113.31900 | 54 ft | 2 kts | 193° |
| 2026-05-01 09:04 | 23.36589 | 113.31888 | 54 ft | 10 kts | 194° |
| 2026-05-01 09:04 | 23.36489 | 113.31861 | 54 ft | 16 kts | 193° |
| 2026-05-01 09:04 | 23.36382 | 113.31832 | 54 ft | 15 kts | 193° |
| 2026-05-01 09:05 | 23.36288 | 113.31807 | 54 ft | 15 kts | 193° |
| 2026-05-01 09:05 | 23.36177 | 113.31778 | 54 ft | 17 kts | 193° |
| 2026-05-01 09:05 | 23.36171 | 113.31776 | 54 ft | 17 kts | 193° |
| 2026-05-01 09:06 | 23.36074 | 113.31750 | 54 ft | 12 kts | 194° |
| 2026-05-01 09:06 | 23.35982 | 113.31724 | 54 ft | 14 kts | 193° |
| 2026-05-01 09:06 | 23.35953 | 113.31717 | 54 ft | 14 kts | 194° |
| 2026-05-01 09:06 | 23.35785 | 113.31672 | 54 ft | 16 kts | 194° |
| 2026-05-01 09:07 | 23.35669 | 113.31641 | 54 ft | 17 kts | 194° |
| 2026-05-01 09:07 | 23.35610 | 113.31625 | 54 ft | 3 kts | 193° |
| 2026-05-01 09:07 | 23.35603 | 113.31623 | 54 ft | 0 kts | 193° |
| 2026-05-01 09:07 | 23.35601 | 113.31623 | 54 ft | 2 kts | 193° |
| 2026-05-01 09:08 | 23.35570 | 113.31616 | 54 ft | 1 kts | 184° |
| 2026-05-01 09:08 | 23.35560 | 113.31628 | 54 ft | 3 kts | 113° |
| 2026-05-01 09:08 | 23.35547 | 113.31667 | 54 ft | 7 kts | 104° |
| 2026-05-01 09:08 | 23.35522 | 113.31776 | 54 ft | 21 kts | 103° |
| 2026-05-01 09:09 | 23.35503 | 113.31895 | 54 ft | 9 kts | 83° |
| 2026-05-01 09:09 | 23.35522 | 113.31924 | 54 ft | 5 kts | 25° |
| 2026-05-01 09:09 | 23.35569 | 113.31939 | 54 ft | 16 kts | 14° |
| 2026-05-01 09:09 | 23.35974 | 113.32050 | 55 ft | 104 kts | 13° |
| 2026-05-01 09:10 | 23.36940 | 113.32327 | 219 ft | 170 kts | 16° |
| 2026-05-01 09:10 | 23.37109 | 113.32379 | 298 ft | 174 kts | 17° |
| 2026-05-01 09:10 | 23.37404 | 113.32471 | 434 ft | 183 kts | 16° |
| 2026-05-01 09:10 | 23.38626 | 113.32820 | 1608 ft | 187 kts | 17° |
| 2026-05-01 09:11 | 23.39866 | 113.33306 | 2660 ft | 198 kts | 27° |
| 2026-05-01 09:11 | 23.41070 | 113.34032 | 3614 ft | 200 kts | 34° |
| 2026-05-01 09:11 | 23.42257 | 113.34952 | 4004 ft | 218 kts | 40° |
| 2026-05-01 09:11 | 23.43460 | 113.36041 | 4446 ft | 235 kts | 43° |
| 2026-05-01 09:12 | 23.44738 | 113.37306 | 4926 ft | 255 kts | 44° |
| 2026-05-01 09:12 | 23.46030 | 113.38656 | 5682 ft | 261 kts | 45° |
| 2026-05-01 09:12 | 23.47311 | 113.40031 | 6522 ft | 265 kts | 45° |
| 2026-05-01 09:12 | 23.48641 | 113.41482 | 7289 ft | 272 kts | 45° |
| 2026-05-01 09:13 | 23.50002 | 113.42947 | 7993 ft | 280 kts | 39° |
| 2026-05-01 09:13 | 23.51776 | 113.43981 | 8426 ft | 296 kts | 12° |
| 2026-05-01 09:13 | 23.53799 | 113.44388 | 9200 ft | 300 kts | 7° |
| 2026-05-01 09:13 | 23.55860 | 113.44797 | 9969 ft | 305 kts | 7° |
| 2026-05-01 09:14 | 23.57985 | 113.45211 | 10528 ft | 318 kts | 7° |
| 2026-05-01 09:14 | 23.60252 | 113.45647 | 10848 ft | 339 kts | 7° |
| 2026-05-01 09:14 | 23.62648 | 113.46107 | 11187 ft | 359 kts | 7° |
| 2026-05-01 09:14 | 23.65217 | 113.46600 | 11444 ft | 380 kts | 7° |
| 2026-05-01 09:15 | 23.67850 | 113.47107 | 12037 ft | 388 kts | 7° |
| 2026-05-01 09:15 | 23.70535 | 113.47623 | 12735 ft | 392 kts | 7° |
| 2026-05-01 09:15 | 23.73225 | 113.48141 | 13458 ft | 395 kts | 7° |
| 2026-05-01 09:15 | 23.75961 | 113.48666 | 14111 ft | 399 kts | 7° |
| 2026-05-01 09:16 | 23.78715 | 113.49195 | 14803 ft | 401 kts | 7° |
| 2026-05-01 09:16 | 23.81485 | 113.49728 | 15443 ft | 404 kts | 7° |
| 2026-05-01 09:16 | 23.84281 | 113.50266 | 16108 ft | 406 kts | 7° |
| 2026-05-01 09:17 | 23.89902 | 113.51347 | 17310 ft | 413 kts | 7° |
| 2026-05-01 09:17 | 23.92767 | 113.51897 | 17932 ft | 416 kts | 7° |
| 2026-05-01 09:17 | 23.98450 | 113.52993 | 19363 ft | 415 kts | 7° |
| 2026-05-01 09:18 | 24.01300 | 113.53543 | 20069 ft | 414 kts | 7° |
| 2026-05-01 09:18 | 24.06978 | 113.54637 | 21365 ft | 414 kts | 7° |
| 2026-05-01 09:19 | 24.12679 | 113.54607 | 22582 ft | 407 kts | 345° |
| 2026-05-01 09:19 | 24.15353 | 113.53740 | 23326 ft | 400 kts | 335° |
| 2026-05-01 09:19 | 24.17861 | 113.52424 | 24089 ft | 397 kts | 329° |
| 2026-05-01 09:20 | 24.22757 | 113.49551 | 24531 ft | 399 kts | 328° |
| 2026-05-01 09:20 | 24.27576 | 113.46599 | 24533 ft | 399 kts | 327° |
| 2026-05-01 09:21 | 24.32657 | 113.43597 | 24551 ft | 431 kts | 334° |
| 2026-05-01 09:21 | 24.35549 | 113.42576 | 24560 ft | 447 kts | 344° |
| 2026-05-01 09:21 | 24.41961 | 113.42101 | 24572 ft | 474 kts | 0° |
| 2026-05-01 09:22 | 24.48691 | 113.42391 | 24582 ft | 488 kts | 359° |
| 2026-05-01 09:22 | 24.55527 | 113.42641 | 24581 ft | 487 kts | 359° |
| 2026-05-01 09:23 | 24.58890 | 113.42756 | 24575 ft | 486 kts | 359° |
| 2026-05-01 09:23 | 24.65711 | 113.42986 | 24565 ft | 487 kts | 359° |
| 2026-05-01 09:24 | 24.72504 | 113.43180 | 24548 ft | 488 kts | 359° |
| 2026-05-01 09:24 | 24.75897 | 113.43272 | 24540 ft | 487 kts | 359° |
| 2026-05-01 09:24 | 24.82700 | 113.43459 | 24542 ft | 487 kts | 359° |
| 2026-05-01 09:25 | 24.89568 | 113.43646 | 24548 ft | 488 kts | 359° |
| 2026-05-01 09:25 | 24.96382 | 113.43832 | 24553 ft | 489 kts | 359° |
| 2026-05-01 09:26 | 24.99745 | 113.43924 | 24555 ft | 487 kts | 359° |
| 2026-05-01 09:26 | 25.06546 | 113.44109 | 24557 ft | 488 kts | 359° |
| 2026-05-01 09:26 | 25.09931 | 113.44203 | 24559 ft | 489 kts | 359° |
| 2026-05-01 09:27 | 25.16778 | 113.44390 | 24560 ft | 489 kts | 359° |
| 2026-05-01 09:27 | 25.20169 | 113.44483 | 24564 ft | 490 kts | 359° |
| 2026-05-01 09:27 | 25.22493 | 113.44546 | 24565 ft | 490 kts | 358° |
| 2026-05-01 09:28 | 25.30459 | 113.44765 | 24566 ft | 489 kts | 359° |
| 2026-05-01 09:28 | 25.33860 | 113.44859 | 24569 ft | 489 kts | 359° |
| 2026-05-01 09:28 | 25.37255 | 113.44952 | 24568 ft | 489 kts | 359° |
| 2026-05-01 09:29 | 25.44438 | 113.45150 | 24575 ft | 489 kts | 358° |
| 2026-05-01 09:29 | 25.47863 | 113.45247 | 24579 ft | 489 kts | 359° |
| 2026-05-01 09:30 | 25.52416 | 113.45376 | 24575 ft | 490 kts | 358° |
| 2026-05-01 09:30 | 25.54713 | 113.45441 | 24573 ft | 490 kts | 358° |
| 2026-05-01 09:31 | 25.68551 | 113.45837 | 24581 ft | 490 kts | 358° |
| 2026-05-01 09:31 | 25.71932 | 113.45933 | 24576 ft | 490 kts | 358° |
| 2026-05-01 09:31 | 25.78832 | 113.46130 | 24570 ft | 491 kts | 359° |
| 2026-05-01 09:32 | 25.82219 | 113.46228 | 24561 ft | 491 kts | 359° |
| 2026-05-01 09:32 | 25.89083 | 113.46424 | 24554 ft | 491 kts | 358° |
| 2026-05-01 09:32 | 25.92538 | 113.46523 | 24552 ft | 491 kts | 359° |
| 2026-05-01 09:33 | 25.95985 | 113.46623 | 24546 ft | 491 kts | 359° |
| 2026-05-01 09:33 | 25.99399 | 113.46722 | 24532 ft | 491 kts | 358° |
| 2026-05-01 09:33 | 26.06264 | 113.46919 | 24525 ft | 491 kts | 358° |
| 2026-05-01 09:34 | 26.09726 | 113.47019 | 24531 ft | 491 kts | 358° |
| 2026-05-01 09:34 | 26.13139 | 113.47118 | 24530 ft | 492 kts | 358° |
| 2026-05-01 09:34 | 26.18903 | 113.47284 | 24533 ft | 493 kts | 358° |
| 2026-05-01 09:35 | 26.23490 | 113.47417 | 24534 ft | 490 kts | 358° |
| 2026-05-01 09:35 | 26.30350 | 113.47615 | 24532 ft | 492 kts | 358° |
| 2026-05-01 09:35 | 26.33742 | 113.47714 | 24524 ft | 491 kts | 358° |
| 2026-05-01 09:36 | 26.37191 | 113.47814 | 24521 ft | 491 kts | 358° |
| 2026-05-01 09:36 | 26.40624 | 113.47913 | 24516 ft | 491 kts | 358° |
| 2026-05-01 09:36 | 26.44012 | 113.48012 | 24516 ft | 491 kts | 358° |
| 2026-05-01 09:36 | 26.47473 | 113.48112 | 24391 ft | 494 kts | 358° |
| 2026-05-01 09:37 | 26.50900 | 113.48212 | 24150 ft | 493 kts | 359° |
| 2026-05-01 09:37 | 26.57796 | 113.48560 | 22800 ft | 486 kts | 359° |
| 2026-05-01 09:37 | 26.61157 | 113.48737 | 22676 ft | 485 kts | 359° |
| 2026-05-01 09:38 | 26.66675 | 113.49023 | 22303 ft | 496 kts | 359° |
| 2026-05-01 09:38 | 26.70064 | 113.49203 | 21749 ft | 486 kts | 359° |
| 2026-05-01 09:38 | 26.73495 | 113.49380 | 21190 ft | 496 kts | 359° |
| 2026-05-01 09:39 | 26.80128 | 113.49730 | 20642 ft | 460 kts | 359° |
| 2026-05-01 09:39 | 26.83251 | 113.49853 | 20403 ft | 453 kts | 357° |
| 2026-05-01 09:39 | 26.86490 | 113.49907 | 19749 ft | 471 kts | 357° |
| 2026-05-01 09:40 | 26.89727 | 113.49973 | 19074 ft | 463 kts | 357° |
| 2026-05-01 09:40 | 26.96086 | 113.50103 | 17690 ft | 447 kts | 357° |
| 2026-05-01 09:40 | 26.99177 | 113.50167 | 16996 ft | 439 kts | 357° |
| 2026-05-01 09:41 | 27.02232 | 113.50229 | 16298 ft | 433 kts | 357° |
| 2026-05-01 09:41 | 27.10163 | 113.50393 | 14319 ft | 410 kts | 357° |
| 2026-05-01 09:42 | 27.11779 | 113.50424 | 13917 ft | 407 kts | 357° |
| 2026-05-01 09:42 | 27.14663 | 113.50480 | 13396 ft | 424 kts | 357° |
| 2026-05-01 09:42 | 27.20454 | 113.50604 | 12480 ft | 396 kts | 357° |
| 2026-05-01 09:43 | 27.25976 | 113.50262 | 11808 ft | 395 kts | 341° |
| 2026-05-01 09:43 | 27.28638 | 113.49342 | 11233 ft | 398 kts | 338° |
| 2026-05-01 09:43 | 27.31265 | 113.48397 | 10643 ft | 394 kts | 338° |
| 2026-05-01 09:44 | 27.36334 | 113.46556 | 10235 ft | 371 kts | 338° |
| 2026-05-01 09:44 | 27.38794 | 113.45657 | 9653 ft | 366 kts | 338° |
| 2026-05-01 09:44 | 27.41258 | 113.44753 | 9686 ft | 379 kts | 338° |
| 2026-05-01 09:45 | 27.43817 | 113.43813 | 9680 ft | 391 kts | 338° |
| 2026-05-01 09:45 | 27.48879 | 113.42002 | 9617 ft | 345 kts | 343° |
| 2026-05-01 09:45 | 27.51125 | 113.41723 | 9662 ft | 306 kts | 354° |
| 2026-05-01 09:46 | 27.53150 | 113.41651 | 9699 ft | 289 kts | 353° |
| 2026-05-01 09:46 | 27.55228 | 113.41579 | 9691 ft | 299 kts | 354° |
| 2026-05-01 09:46 | 27.57311 | 113.41531 | 9674 ft | 295 kts | 355° |
| 2026-05-01 09:46 | 27.59338 | 113.41493 | 9624 ft | 295 kts | 354° |
| 2026-05-01 09:47 | 27.61438 | 113.41454 | 9298 ft | 301 kts | 355° |
| 2026-05-01 09:47 | 27.63545 | 113.41419 | 8919 ft | 301 kts | 355° |
| 2026-05-01 09:47 | 27.65623 | 113.41436 | 8561 ft | 300 kts | 0° |
| 2026-05-01 09:47 | 27.67707 | 113.41618 | 8226 ft | 295 kts | 1° |
| 2026-05-01 09:48 | 27.69734 | 113.41786 | 7931 ft | 289 kts | 1° |
| 2026-05-01 09:48 | 27.71734 | 113.41956 | 7600 ft | 293 kts | 1° |
| 2026-05-01 09:48 | 27.73782 | 113.42134 | 7253 ft | 293 kts | 1° |
| 2026-05-01 09:48 | 27.75814 | 113.42313 | 6941 ft | 291 kts | 2° |
| 2026-05-01 09:49 | 27.77825 | 113.42490 | 6586 ft | 291 kts | 2° |
| 2026-05-01 09:49 | 27.79850 | 113.42670 | 6237 ft | 290 kts | 2° |
| 2026-05-01 09:49 | 27.81850 | 113.42546 | 5901 ft | 283 kts | 341° |
| 2026-05-01 09:49 | 27.83664 | 113.41769 | 5655 ft | 277 kts | 335° |
| 2026-05-01 09:50 | 27.85450 | 113.40939 | 5436 ft | 275 kts | 335° |
| 2026-05-01 09:50 | 27.87226 | 113.40098 | 5208 ft | 277 kts | 334° |
| 2026-05-01 09:50 | 27.88998 | 113.39246 | 4949 ft | 274 kts | 334° |
| 2026-05-01 09:50 | 27.90713 | 113.38418 | 4942 ft | 259 kts | 334° |
| 2026-05-01 09:51 | 27.92328 | 113.37633 | 4940 ft | 246 kts | 334° |
| 2026-05-01 09:51 | 27.93719 | 113.36625 | 4934 ft | 229 kts | 306° |
| 2026-05-01 09:51 | 27.94390 | 113.35054 | 4854 ft | 227 kts | 275° |
| 2026-05-01 09:51 | 27.94500 | 113.33257 | 4585 ft | 231 kts | 268° |
| 2026-05-01 09:52 | 27.94527 | 113.31433 | 4275 ft | 233 kts | 266° |
| 2026-05-01 09:52 | 27.94509 | 113.29569 | 3950 ft | 236 kts | 265° |
| 2026-05-01 09:52 | 27.94461 | 113.27704 | 3540 ft | 243 kts | 265° |
| 2026-05-01 09:52 | 27.94785 | 113.25796 | 3149 ft | 252 kts | 295° |
| 2026-05-01 09:53 | 27.95905 | 113.24319 | 3118 ft | 242 kts | 321° |
| 2026-05-01 09:53 | 27.97397 | 113.23625 | 3128 ft | 226 kts | 357° |
| 2026-05-01 09:53 | 27.98927 | 113.23564 | 3109 ft | 215 kts | 1° |
| 2026-05-01 09:53 | 28.00379 | 113.23495 | 3104 ft | 204 kts | 358° |
| 2026-05-01 09:54 | 28.01762 | 113.23402 | 3112 ft | 192 kts | 359° |
| 2026-05-01 09:54 | 28.03099 | 113.23318 | 2955 ft | 188 kts | 359° |
| 2026-05-01 09:54 | 28.04400 | 113.23238 | 2747 ft | 177 kts | 359° |
| 2026-05-01 09:54 | 28.05588 | 113.23164 | 2514 ft | 165 kts | 360° |
| 2026-05-01 09:55 | 28.06670 | 113.23096 | 2265 ft | 149 kts | 0° |
| 2026-05-01 09:55 | 28.07667 | 113.23035 | 2068 ft | 137 kts | 0° |
| 2026-05-01 09:55 | 28.08626 | 113.22980 | 1892 ft | 137 kts | 1° |
| 2026-05-01 09:55 | 28.09592 | 113.22924 | 1729 ft | 140 kts | 0° |
| 2026-05-01 09:56 | 28.10570 | 113.22865 | 1540 ft | 138 kts | 0° |
| 2026-05-01 09:56 | 28.11524 | 113.22808 | 1356 ft | 136 kts | 0° |
| 2026-05-01 09:56 | 28.12472 | 113.22752 | 1186 ft | 136 kts | 360° |
| 2026-05-01 09:56 | 28.13435 | 113.22694 | 1005 ft | 136 kts | 359° |
| 2026-05-01 09:57 | 28.14393 | 113.22636 | 829 ft | 135 kts | 359° |
| 2026-05-01 09:57 | 28.15227 | 113.22586 | 676 ft | 134 kts | 359° |
| 2026-05-01 09:58 | 28.15783 | 113.22553 | 571 ft | 133 kts | 358° |
| 2026-05-01 09:58 | 28.16707 | 113.22497 | 405 ft | 133 kts | 358° |
| 2026-05-01 09:58 | 28.17637 | 113.22440 | 251 ft | 131 kts | 358° |
| 2026-05-01 09:58 | 28.18535 | 113.22398 | 233 ft | 130 kts | 358° |
| 2026-05-01 09:59 | 28.19450 | 113.22352 | 224 ft | 126 kts | 357° |
| 2026-05-01 09:59 | 28.20112 | 113.22298 | 223 ft | 62 kts | 357° |
| 2026-05-01 09:59 | 28.20448 | 113.22275 | 223 ft | 44 kts | 358° |
| 2026-05-01 09:59 | 28.20571 | 113.22217 | 223 ft | 8 kts | 280° |
| 2026-05-01 10:00 | 28.20569 | 113.22148 | 223 ft | 9 kts | 266° |
| 2026-05-01 10:00 | 28.20581 | 113.22071 | 223 ft | 10 kts | 291° |
| 2026-05-01 10:00 | 28.20606 | 113.21980 | 223 ft | 13 kts | 272° |
| 2026-05-01 10:00 | 28.20607 | 113.21863 | 223 ft | 16 kts | 276° |
| 2026-05-01 10:01 | 28.20600 | 113.21726 | 223 ft | 12 kts | 252° |
| 2026-05-01 10:01 | 28.20530 | 113.21689 | 223 ft | 13 kts | 175° |
| 2026-05-01 10:01 | 28.20432 | 113.21694 | 223 ft | 15 kts | 177° |
| 2026-05-01 10:01 | 28.20310 | 113.21702 | 223 ft | 19 kts | 176° |
| 2026-05-01 10:02 | 28.20162 | 113.21711 | 223 ft | 22 kts | 176° |
| 2026-05-01 10:02 | 28.19992 | 113.21722 | 223 ft | 25 kts | 176° |
| 2026-05-01 10:02 | 28.19818 | 113.21732 | 223 ft | 20 kts | 176° |
| 2026-05-01 10:02 | 28.19671 | 113.21743 | 223 ft | 21 kts | 176° |
| 2026-05-01 10:03 | 28.19609 | 113.21745 | 223 ft | 21 kts | 177° |
| 2026-05-01 10:03 | 28.19480 | 113.21754 | 223 ft | 22 kts | 177° |
| 2026-05-01 10:03 | 28.19405 | 113.21731 | 223 ft | 7 kts | 250° |
| 2026-05-01 10:04 | 28.19399 | 113.21677 | 223 ft | 6 kts | 260° |
| 2026-05-01 10:04 | 28.19377 | 113.21625 | 223 ft | 7 kts | 237° |
| 2026-05-01 10:04 | 28.19350 | 113.21575 | 223 ft | 8 kts | 240° |
| 2026-05-01 10:04 | 28.19337 | 113.21550 | 223 ft | 0 kts | 239° |